sensor_id;sensor_type;location;lat;lon;timestamp;temperature;humidity
33837;DHT22;20140;49.356;8.812;2023-02-01T00:01:24;5.30;99.90
33837;DHT22;20140;49.356;8.812;2023-02-01T00:03:49;5.20;99.90
33837;DHT22;20140;49.356;8.812;2023-02-01T00:06:15;5.30;99.90
33837;DHT22;20140;49.356;8.812;2023-02-01T00:08:40;5.30;99.90
33837;DHT22;20140;49.356;8.812;2023-02-01T00:11:09;5.30;99.90
33837;DHT22;20140;49.356;8.812;2023-02-01T00:13:37;5.30;99.90
33837;DHT22;20140;49.356;8.812;2023-02-01T00:16:14;5.30;99.90
33837;DHT22;20140;49.356;8.812;2023-02-01T00:18:46;5.30;99.90
33837;DHT22;20140;49.356;8.812;2023-02-01T00:21:14;5.30;99.90
33837;DHT22;20140;49.356;8.812;2023-02-01T00:23:40;5.40;99.90
33837;DHT22;20140;49.356;8.812;2023-02-01T00:26:13;5.30;99.90
33837;DHT22;20140;49.356;8.812;2023-02-01T00:28:39;5.40;99.90
33837;DHT22;20140;49.356;8.812;2023-02-01T00:31:04;5.40;99.90
33837;DHT22;20140;49.356;8.812;2023-02-01T00:33:31;5.40;99.90
33837;DHT22;20140;49.356;8.812;2023-02-01T00:36:02;5.40;99.90
33837;DHT22;20140;49.356;8.812;2023-02-01T00:38:29;5.50;99.90
33837;DHT22;20140;49.356;8.812;2023-02-01T00:41:05;5.40;99.90
33837;DHT22;20140;49.356;8.812;2023-02-01T00:43:32;5.50;99.90
33837;DHT22;20140;49.356;8.812;2023-02-01T00:45:57;5.40;99.90
33837;DHT22;20140;49.356;8.812;2023-02-01T00:48:24;5.40;99.90
33837;DHT22;20140;49.356;8.812;2023-02-01T00:50:50;5.40;99.90
33837;DHT22;20140;49.356;8.812;2023-02-01T00:53:15;5.50;99.90
33837;DHT22;20140;49.356;8.812;2023-02-01T00:55:47;5.50;99.90
33837;DHT22;20140;49.356;8.812;2023-02-01T00:58:13;5.50;99.90
33837;DHT22;20140;49.356;8.812;2023-02-01T01:00:39;5.50;99.90
33837;DHT22;20140;49.356;8.812;2023-02-01T01:03:04;5.50;99.90
33837;DHT22;20140;49.356;8.812;2023-02-01T01:05:46;5.50;99.90
33837;DHT22;20140;49.356;8.812;2023-02-01T01:08:12;5.50;99.90
33837;DHT22;20140;49.356;8.812;2023-02-01T01:10:37;5.50;99.90
33837;DHT22;20140;49.356;8.812;2023-02-01T01:13:03;5.50;99.90
33837;DHT22;20140;49.356;8.812;2023-02-01T01:15:28;5.50;99.90
33837;DHT22;20140;49.356;8.812;2023-02-01T01:17:54;5.50;99.90
33837;DHT22;20140;49.356;8.812;2023-02-01T01:20:19;5.50;99.90
33837;DHT22;20140;49.356;8.812;2023-02-01T01:22:47;5.50;99.90
33837;DHT22;20140;49.356;8.812;2023-02-01T01:25:14;5.50;99.90
33837;DHT22;20140;49.356;8.812;2023-02-01T01:27:39;5.50;99.90
33837;DHT22;20140;49.356;8.812;2023-02-01T01:30:06;5.50;99.90
33837;DHT22;20140;49.356;8.812;2023-02-01T01:32:32;5.50;99.90
33837;DHT22;20140;49.356;8.812;2023-02-01T01:34:58;5.50;99.90
33837;DHT22;20140;49.356;8.812;2023-02-01T01:37:23;5.50;99.90
33837;DHT22;20140;49.356;8.812;2023-02-01T01:39:49;5.50;99.90
33837;DHT22;20140;49.356;8.812;2023-02-01T01:42:14;5.50;99.90
33837;DHT22;20140;49.356;8.812;2023-02-01T01:45:05;5.50;99.90
33837;DHT22;20140;49.356;8.812;2023-02-01T01:47:37;5.50;99.90
33837;DHT22;20140;49.356;8.812;2023-02-01T01:50:07;5.60;99.90
33837;DHT22;20140;49.356;8.812;2023-02-01T01:52:36;5.60;99.90
33837;DHT22;20140;49.356;8.812;2023-02-01T01:55:02;5.60;99.90
33837;DHT22;20140;49.356;8.812;2023-02-01T01:57:34;5.60;99.90
33837;DHT22;20140;49.356;8.812;2023-02-01T02:02:29;5.60;99.90
33837;DHT22;20140;49.356;8.812;2023-02-01T02:04:55;5.60;99.90
33837;DHT22;20140;49.356;8.812;2023-02-01T02:07:28;5.50;99.90
33837;DHT22;20140;49.356;8.812;2023-02-01T02:09:55;5.50;99.90
33837;DHT22;20140;49.356;8.812;2023-02-01T02:12:21;5.60;99.90
33837;DHT22;20140;49.356;8.812;2023-02-01T02:14:46;5.60;99.90
33837;DHT22;20140;49.356;8.812;2023-02-01T02:18:10;5.60;99.90
33837;DHT22;20140;49.356;8.812;2023-02-01T02:20:33;5.50;99.90
33837;DHT22;20140;49.356;8.812;2023-02-01T02:23:20;5.50;99.90
33837;DHT22;20140;49.356;8.812;2023-02-01T02:34:38;5.50;99.90
33837;DHT22;20140;49.356;8.812;2023-02-01T02:37:27;5.50;99.90
33837;DHT22;20140;49.356;8.812;2023-02-01T02:41:06;5.50;99.90
33837;DHT22;20140;49.356;8.812;2023-02-01T02:43:26;5.50;99.90
33837;DHT22;20140;49.356;8.812;2023-02-01T02:46:33;5.50;99.90
33837;DHT22;20140;49.356;8.812;2023-02-01T02:51:55;5.50;99.90
33837;DHT22;20140;49.356;8.812;2023-02-01T02:54:46;5.50;99.90
33837;DHT22;20140;49.356;8.812;2023-02-01T03:00:06;5.40;99.90
33837;DHT22;20140;49.356;8.812;2023-02-01T03:02:52;5.50;99.90
33837;DHT22;20140;49.356;8.812;2023-02-01T03:05:39;5.40;99.90
33837;DHT22;20140;49.356;8.812;2023-02-01T03:08:18;5.50;99.90
33837;DHT22;20140;49.356;8.812;2023-02-01T03:11:01;5.50;99.90
33837;DHT22;20140;49.356;8.812;2023-02-01T03:16:17;5.50;99.90
33837;DHT22;20140;49.356;8.812;2023-02-01T03:19:07;5.50;99.90
33837;DHT22;20140;49.356;8.812;2023-02-01T03:21:45;5.50;99.90
33837;DHT22;20140;49.356;8.812;2023-02-01T03:24:31;5.50;99.90
33837;DHT22;20140;49.356;8.812;2023-02-01T03:27:23;5.50;99.90
33837;DHT22;20140;49.356;8.812;2023-02-01T03:29:56;5.50;99.90
33837;DHT22;20140;49.356;8.812;2023-02-01T03:32:24;5.50;99.90
33837;DHT22;20140;49.356;8.812;2023-02-01T03:34:50;5.50;99.90
33837;DHT22;20140;49.356;8.812;2023-02-01T03:37:25;5.40;99.90
33837;DHT22;20140;49.356;8.812;2023-02-01T03:40:01;5.40;99.90
33837;DHT22;20140;49.356;8.812;2023-02-01T03:42:40;5.40;99.90
33837;DHT22;20140;49.356;8.812;2023-02-01T03:45:14;5.40;99.90
33837;DHT22;20140;49.356;8.812;2023-02-01T03:47:45;5.30;99.90
33837;DHT22;20140;49.356;8.812;2023-02-01T03:50:20;5.40;99.90
33837;DHT22;20140;49.356;8.812;2023-02-01T03:52:56;5.40;99.90
33837;DHT22;20140;49.356;8.812;2023-02-01T03:55:24;5.40;99.90
33837;DHT22;20140;49.356;8.812;2023-02-01T03:58:16;5.40;99.90
33837;DHT22;20140;49.356;8.812;2023-02-01T04:00:51;5.40;99.90
33837;DHT22;20140;49.356;8.812;2023-02-01T04:03:17;5.40;99.90
33837;DHT22;20140;49.356;8.812;2023-02-01T04:05:42;5.40;99.90
33837;DHT22;20140;49.356;8.812;2023-02-01T04:08:08;5.50;99.90
33837;DHT22;20140;49.356;8.812;2023-02-01T04:10:33;5.50;99.90
33837;DHT22;20140;49.356;8.812;2023-02-01T04:12:59;5.50;99.90
33837;DHT22;20140;49.356;8.812;2023-02-01T04:15:25;5.50;99.90
33837;DHT22;20140;49.356;8.812;2023-02-01T04:17:50;5.50;99.90
33837;DHT22;20140;49.356;8.812;2023-02-01T04:20:16;5.50;99.90
33837;DHT22;20140;49.356;8.812;2023-02-01T04:22:41;5.50;99.90
33837;DHT22;20140;49.356;8.812;2023-02-01T04:25:07;5.50;99.90
33837;DHT22;20140;49.356;8.812;2023-02-01T04:27:34;5.50;99.90
33837;DHT22;20140;49.356;8.812;2023-02-01T04:29:59;5.50;99.90
33837;DHT22;20140;49.356;8.812;2023-02-01T04:32:25;5.50;99.90
33837;DHT22;20140;49.356;8.812;2023-02-01T04:34:50;5.50;99.90
33837;DHT22;20140;49.356;8.812;2023-02-01T04:37:16;5.50;99.90
33837;DHT22;20140;49.356;8.812;2023-02-01T04:39:41;5.50;99.90
33837;DHT22;20140;49.356;8.812;2023-02-01T04:42:07;5.50;99.90
33837;DHT22;20140;49.356;8.812;2023-02-01T04:44:34;5.50;99.90
33837;DHT22;20140;49.356;8.812;2023-02-01T04:47:02;5.50;99.90
33837;DHT22;20140;49.356;8.812;2023-02-01T04:49:27;5.50;99.90
33837;DHT22;20140;49.356;8.812;2023-02-01T04:51:53;5.50;99.90
33837;DHT22;20140;49.356;8.812;2023-02-01T04:54:18;5.50;99.90
33837;DHT22;20140;49.356;8.812;2023-02-01T04:56:44;5.50;99.90
33837;DHT22;20140;49.356;8.812;2023-02-01T04:59:11;5.50;99.90
33837;DHT22;20140;49.356;8.812;2023-02-01T05:01:36;5.40;99.90
33837;DHT22;20140;49.356;8.812;2023-02-01T05:04:02;5.40;99.90
33837;DHT22;20140;49.356;8.812;2023-02-01T05:06:27;5.50;99.90
33837;DHT22;20140;49.356;8.812;2023-02-01T05:08:53;5.40;99.90
33837;DHT22;20140;49.356;8.812;2023-02-01T05:11:19;5.40;99.90
33837;DHT22;20140;49.356;8.812;2023-02-01T05:14:03;5.40;99.90
33837;DHT22;20140;49.356;8.812;2023-02-01T05:16:28;5.40;99.90
33837;DHT22;20140;49.356;8.812;2023-02-01T05:18:54;5.40;99.90
33837;DHT22;20140;49.356;8.812;2023-02-01T05:21:20;5.40;99.90
33837;DHT22;20140;49.356;8.812;2023-02-01T05:23:45;5.30;99.90
33837;DHT22;20140;49.356;8.812;2023-02-01T05:26:29;5.30;99.90
33837;DHT22;20140;49.356;8.812;2023-02-01T05:28:55;5.30;99.90
33837;DHT22;20140;49.356;8.812;2023-02-01T05:31:21;5.30;99.90
33837;DHT22;20140;49.356;8.812;2023-02-01T05:33:47;5.30;99.90
33837;DHT22;20140;49.356;8.812;2023-02-01T05:36:13;5.30;99.90
33837;DHT22;20140;49.356;8.812;2023-02-01T05:38:38;5.30;99.90
33837;DHT22;20140;49.356;8.812;2023-02-01T05:41:04;5.30;99.90
33837;DHT22;20140;49.356;8.812;2023-02-01T05:43:30;5.30;99.90
33837;DHT22;20140;49.356;8.812;2023-02-01T05:45:55;5.20;99.90
33837;DHT22;20140;49.356;8.812;2023-02-01T05:48:21;5.20;99.90
33837;DHT22;20140;49.356;8.812;2023-02-01T05:50:46;5.20;99.90
33837;DHT22;20140;49.356;8.812;2023-02-01T05:53:12;5.20;99.90
33837;DHT22;20140;49.356;8.812;2023-02-01T05:55:38;5.20;99.90
33837;DHT22;20140;49.356;8.812;2023-02-01T05:58:04;5.20;99.90
33837;DHT22;20140;49.356;8.812;2023-02-01T06:00:30;5.10;99.90
33837;DHT22;20140;49.356;8.812;2023-02-01T06:02:56;5.10;99.90
33837;DHT22;20140;49.356;8.812;2023-02-01T06:05:22;5.10;99.90
33837;DHT22;20140;49.356;8.812;2023-02-01T06:07:47;5.10;99.90
33837;DHT22;20140;49.356;8.812;2023-02-01T06:10:15;5.10;99.90
33837;DHT22;20140;49.356;8.812;2023-02-01T06:12:41;5.10;99.90
33837;DHT22;20140;49.356;8.812;2023-02-01T06:15:07;5.10;99.90
33837;DHT22;20140;49.356;8.812;2023-02-01T06:17:33;5.10;99.90
33837;DHT22;20140;49.356;8.812;2023-02-01T06:19:58;5.10;99.90
33837;DHT22;20140;49.356;8.812;2023-02-01T06:22:24;5.10;99.90
33837;DHT22;20140;49.356;8.812;2023-02-01T06:24:49;5.10;99.90
33837;DHT22;20140;49.356;8.812;2023-02-01T06:27:15;5.10;99.90
33837;DHT22;20140;49.356;8.812;2023-02-01T06:29:41;5.10;99.90
33837;DHT22;20140;49.356;8.812;2023-02-01T06:32:06;5.10;99.90
33837;DHT22;20140;49.356;8.812;2023-02-01T06:34:32;5.10;99.90
33837;DHT22;20140;49.356;8.812;2023-02-01T06:36:57;5.10;99.90
33837;DHT22;20140;49.356;8.812;2023-02-01T06:39:23;5.20;99.90
33837;DHT22;20140;49.356;8.812;2023-02-01T06:41:49;5.10;99.90
33837;DHT22;20140;49.356;8.812;2023-02-01T06:44:15;5.10;99.90
33837;DHT22;20140;49.356;8.812;2023-02-01T06:46:40;5.10;99.90
33837;DHT22;20140;49.356;8.812;2023-02-01T06:49:06;5.20;99.90
33837;DHT22;20140;49.356;8.812;2023-02-01T06:51:32;5.10;99.90
33837;DHT22;20140;49.356;8.812;2023-02-01T06:53:57;5.10;99.90
33837;DHT22;20140;49.356;8.812;2023-02-01T06:56:23;5.10;99.90
33837;DHT22;20140;49.356;8.812;2023-02-01T06:58:49;5.10;99.90
33837;DHT22;20140;49.356;8.812;2023-02-01T07:01:15;5.20;99.90
33837;DHT22;20140;49.356;8.812;2023-02-01T07:03:41;5.20;99.90
33837;DHT22;20140;49.356;8.812;2023-02-01T07:06:08;5.20;99.90
33837;DHT22;20140;49.356;8.812;2023-02-01T07:08:36;5.20;99.90
33837;DHT22;20140;49.356;8.812;2023-02-01T07:11:07;5.20;99.90
33837;DHT22;20140;49.356;8.812;2023-02-01T07:13:34;5.20;99.90
33837;DHT22;20140;49.356;8.812;2023-02-01T07:16:04;5.20;99.90
33837;DHT22;20140;49.356;8.812;2023-02-01T07:18:30;5.30;99.90
33837;DHT22;20140;49.356;8.812;2023-02-01T07:20:56;5.30;99.90
33837;DHT22;20140;49.356;8.812;2023-02-01T07:23:22;5.30;99.90
33837;DHT22;20140;49.356;8.812;2023-02-01T07:25:48;5.30;99.90
33837;DHT22;20140;49.356;8.812;2023-02-01T07:28:14;5.30;99.90
33837;DHT22;20140;49.356;8.812;2023-02-01T07:30:40;5.30;99.90
33837;DHT22;20140;49.356;8.812;2023-02-01T07:33:06;5.30;99.90
33837;DHT22;20140;49.356;8.812;2023-02-01T07:35:32;5.30;99.90
33837;DHT22;20140;49.356;8.812;2023-02-01T07:37:58;5.30;99.90
33837;DHT22;20140;49.356;8.812;2023-02-01T07:40:24;5.30;99.90
33837;DHT22;20140;49.356;8.812;2023-02-01T07:42:56;5.30;99.90
33837;DHT22;20140;49.356;8.812;2023-02-01T07:45:23;5.30;99.90
33837;DHT22;20140;49.356;8.812;2023-02-01T07:47:50;5.30;99.90
33837;DHT22;20140;49.356;8.812;2023-02-01T07:50:16;5.30;99.90
33837;DHT22;20140;49.356;8.812;2023-02-01T07:52:42;5.30;99.90
33837;DHT22;20140;49.356;8.812;2023-02-01T07:55:08;5.40;99.90
33837;DHT22;20140;49.356;8.812;2023-02-01T07:57:33;5.40;99.90
33837;DHT22;20140;49.356;8.812;2023-02-01T07:59:59;5.50;99.90
33837;DHT22;20140;49.356;8.812;2023-02-01T08:02:50;5.50;99.90
33837;DHT22;20140;49.356;8.812;2023-02-01T08:05:16;5.50;99.90
33837;DHT22;20140;49.356;8.812;2023-02-01T08:07:41;5.60;99.90
33837;DHT22;20140;49.356;8.812;2023-02-01T08:10:07;5.60;99.90
33837;DHT22;20140;49.356;8.812;2023-02-01T08:12:36;5.60;99.90
33837;DHT22;20140;49.356;8.812;2023-02-01T08:15:03;5.60;99.90
33837;DHT22;20140;49.356;8.812;2023-02-01T08:17:28;5.70;99.90
33837;DHT22;20140;49.356;8.812;2023-02-01T08:19:54;5.80;99.90
33837;DHT22;20140;49.356;8.812;2023-02-01T08:22:20;5.70;99.90
33837;DHT22;20140;49.356;8.812;2023-02-01T08:24:48;5.70;99.90
33837;DHT22;20140;49.356;8.812;2023-02-01T08:27:13;5.70;99.90
33837;DHT22;20140;49.356;8.812;2023-02-01T08:29:39;5.80;99.90
33837;DHT22;20140;49.356;8.812;2023-02-01T08:32:05;5.80;99.90
33837;DHT22;20140;49.356;8.812;2023-02-01T08:34:30;5.80;99.90
33837;DHT22;20140;49.356;8.812;2023-02-01T08:36:56;5.80;99.90
33837;DHT22;20140;49.356;8.812;2023-02-01T08:39:25;5.80;99.90
33837;DHT22;20140;49.356;8.812;2023-02-01T08:41:51;5.90;99.90
33837;DHT22;20140;49.356;8.812;2023-02-01T08:44:35;5.90;99.90
33837;DHT22;20140;49.356;8.812;2023-02-01T08:47:02;5.90;99.90
33837;DHT22;20140;49.356;8.812;2023-02-01T08:49:28;6.00;99.90
33837;DHT22;20140;49.356;8.812;2023-02-01T08:51:53;6.00;99.90
33837;DHT22;20140;49.356;8.812;2023-02-01T08:54:20;6.00;99.90
33837;DHT22;20140;49.356;8.812;2023-02-01T08:56:46;6.00;99.90
33837;DHT22;20140;49.356;8.812;2023-02-01T08:59:11;6.00;99.90
33837;DHT22;20140;49.356;8.812;2023-02-01T09:01:37;6.10;99.90
33837;DHT22;20140;49.356;8.812;2023-02-01T09:04:02;6.10;99.90
33837;DHT22;20140;49.356;8.812;2023-02-01T09:06:28;6.20;99.90
33837;DHT22;20140;49.356;8.812;2023-02-01T09:08:53;6.20;99.90
33837;DHT22;20140;49.356;8.812;2023-02-01T09:11:19;6.20;99.90
33837;DHT22;20140;49.356;8.812;2023-02-01T09:13:45;6.20;99.90
33837;DHT22;20140;49.356;8.812;2023-02-01T09:16:10;6.20;99.90
33837;DHT22;20140;49.356;8.812;2023-02-01T09:18:36;6.20;99.90
33837;DHT22;20140;49.356;8.812;2023-02-01T09:21:06;6.20;99.90
33837;DHT22;20140;49.356;8.812;2023-02-01T09:23:33;6.20;99.90
33837;DHT22;20140;49.356;8.812;2023-02-01T09:25:59;6.30;99.90
33837;DHT22;20140;49.356;8.812;2023-02-01T09:28:25;6.20;99.90
33837;DHT22;20140;49.356;8.812;2023-02-01T09:30:55;6.30;99.90
33837;DHT22;20140;49.356;8.812;2023-02-01T09:33:21;6.40;99.90
33837;DHT22;20140;49.356;8.812;2023-02-01T09:35:49;6.40;99.90
33837;DHT22;20140;49.356;8.812;2023-02-01T09:38:14;6.40;99.90
33837;DHT22;20140;49.356;8.812;2023-02-01T09:40:42;6.50;99.90
33837;DHT22;20140;49.356;8.812;2023-02-01T09:43:15;6.50;99.90
33837;DHT22;20140;49.356;8.812;2023-02-01T09:48:32;6.40;99.90
33837;DHT22;20140;49.356;8.812;2023-02-01T09:51:00;6.40;99.90
33837;DHT22;20140;49.356;8.812;2023-02-01T09:53:35;6.40;99.90
33837;DHT22;20140;49.356;8.812;2023-02-01T09:56:12;6.50;99.90
33837;DHT22;20140;49.356;8.812;2023-02-01T09:58:44;6.50;99.90
33837;DHT22;20140;49.356;8.812;2023-02-01T10:01:21;6.50;99.90
33837;DHT22;20140;49.356;8.812;2023-02-01T10:04:01;6.60;99.90
33837;DHT22;20140;49.356;8.812;2023-02-01T10:06:57;6.80;99.90
33837;DHT22;20140;49.356;8.812;2023-02-01T10:15:28;6.90;99.90
33837;DHT22;20140;49.356;8.812;2023-02-01T10:18:10;6.90;99.90
33837;DHT22;20140;49.356;8.812;2023-02-01T10:26:24;6.80;99.90
33837;DHT22;20140;49.356;8.812;2023-02-01T10:28:58;6.70;99.90
33837;DHT22;20140;49.356;8.812;2023-02-01T10:31:27;6.70;99.90
33837;DHT22;20140;49.356;8.812;2023-02-01T10:34:01;6.80;99.90
33837;DHT22;20140;49.356;8.812;2023-02-01T10:36:40;6.80;99.90
33837;DHT22;20140;49.356;8.812;2023-02-01T10:39:08;6.80;99.90
33837;DHT22;20140;49.356;8.812;2023-02-01T10:41:38;6.80;99.90
33837;DHT22;20140;49.356;8.812;2023-02-01T10:44:10;6.80;99.90
33837;DHT22;20140;49.356;8.812;2023-02-01T10:46:38;6.90;99.90
33837;DHT22;20140;49.356;8.812;2023-02-01T10:49:05;6.80;99.90
33837;DHT22;20140;49.356;8.812;2023-02-01T10:54:18;6.90;99.90
33837;DHT22;20140;49.356;8.812;2023-02-01T10:56:46;6.90;99.90
33837;DHT22;20140;49.356;8.812;2023-02-01T10:59:18;6.90;99.90
33837;DHT22;20140;49.356;8.812;2023-02-01T11:01:46;6.90;99.90
33837;DHT22;20140;49.356;8.812;2023-02-01T11:04:17;6.90;99.90
33837;DHT22;20140;49.356;8.812;2023-02-01T11:06:55;6.90;99.90
33837;DHT22;20140;49.356;8.812;2023-02-01T11:09:31;6.90;99.90
33837;DHT22;20140;49.356;8.812;2023-02-01T11:11:58;6.90;99.90
33837;DHT22;20140;49.356;8.812;2023-02-01T11:19:38;6.70;99.90
33837;DHT22;20140;49.356;8.812;2023-02-01T11:22:05;6.80;99.90
33837;DHT22;20140;49.356;8.812;2023-02-01T11:24:35;6.80;99.90
33837;DHT22;20140;49.356;8.812;2023-02-01T11:27:12;6.90;99.90
33837;DHT22;20140;49.356;8.812;2023-02-01T11:29:43;7.00;99.90
33837;DHT22;20140;49.356;8.812;2023-02-01T11:32:13;7.10;99.90
33837;DHT22;20140;49.356;8.812;2023-02-01T11:37:17;7.00;99.90
33837;DHT22;20140;49.356;8.812;2023-02-01T11:39:55;7.00;99.90
33837;DHT22;20140;49.356;8.812;2023-02-01T11:42:21;7.00;99.90
33837;DHT22;20140;49.356;8.812;2023-02-01T11:44:47;6.90;99.90
33837;DHT22;20140;49.356;8.812;2023-02-01T11:47:29;6.90;99.90
33837;DHT22;20140;49.356;8.812;2023-02-01T11:49:59;6.90;99.90
33837;DHT22;20140;49.356;8.812;2023-02-01T12:08:59;6.70;99.90
33837;DHT22;20140;49.356;8.812;2023-02-01T12:11:48;6.60;99.90
33837;DHT22;20140;49.356;8.812;2023-02-01T12:20:24;6.70;99.90
33837;DHT22;20140;49.356;8.812;2023-02-01T12:23:27;6.70;99.90
33837;DHT22;20140;49.356;8.812;2023-02-01T12:28:57;6.80;99.90
33837;DHT22;20140;49.356;8.812;2023-02-01T12:31:32;6.70;99.90
33837;DHT22;20140;49.356;8.812;2023-02-01T12:42:44;6.90;99.90
33837;DHT22;20140;49.356;8.812;2023-02-01T12:45:40;6.90;99.90
33837;DHT22;20140;49.356;8.812;2023-02-01T12:51:08;6.80;99.90
33837;DHT22;20140;49.356;8.812;2023-02-01T12:53:52;6.80;99.90
33837;DHT22;20140;49.356;8.812;2023-02-01T12:56:30;6.70;99.90
33837;DHT22;20140;49.356;8.812;2023-02-01T12:58:59;6.70;99.90
33837;DHT22;20140;49.356;8.812;2023-02-01T13:04:26;6.80;99.90
33837;DHT22;20140;49.356;8.812;2023-02-01T13:16:05;6.80;99.90
33837;DHT22;20140;49.356;8.812;2023-02-01T13:18:39;6.80;99.90
33837;DHT22;20140;49.356;8.812;2023-02-01T13:21:17;6.80;99.90
33837;DHT22;20140;49.356;8.812;2023-02-01T13:23:46;6.90;99.90
33837;DHT22;20140;49.356;8.812;2023-02-01T13:26:13;6.80;99.90
33837;DHT22;20140;49.356;8.812;2023-02-01T13:28:46;6.90;99.90
33837;DHT22;20140;49.356;8.812;2023-02-01T13:37:29;6.80;99.90
33837;DHT22;20140;49.356;8.812;2023-02-01T13:40:06;6.80;99.90
33837;DHT22;20140;49.356;8.812;2023-02-01T13:42:49;6.80;99.90
33837;DHT22;20140;49.356;8.812;2023-02-01T13:45:31;6.90;99.90
33837;DHT22;20140;49.356;8.812;2023-02-01T13:48:00;6.80;99.90
33837;DHT22;20140;49.356;8.812;2023-02-01T13:50:37;6.80;99.90
33837;DHT22;20140;49.356;8.812;2023-02-01T13:56:14;6.90;99.90
33837;DHT22;20140;49.356;8.812;2023-02-01T14:03:52;6.80;99.90
33837;DHT22;20140;49.356;8.812;2023-02-01T14:16:43;6.80;99.90
33837;DHT22;20140;49.356;8.812;2023-02-01T14:19:29;6.80;99.90
33837;DHT22;20140;49.356;8.812;2023-02-01T14:24:51;6.80;99.90
33837;DHT22;20140;49.356;8.812;2023-02-01T14:27:22;6.90;99.90
33837;DHT22;20140;49.356;8.812;2023-02-01T14:30:01;6.80;99.90
33837;DHT22;20140;49.356;8.812;2023-02-01T14:32:37;6.90;99.90
33837;DHT22;20140;49.356;8.812;2023-02-01T14:35:26;6.80;99.90
33837;DHT22;20140;49.356;8.812;2023-02-01T14:37:59;6.90;99.90
33837;DHT22;20140;49.356;8.812;2023-02-01T14:40:28;6.80;99.90
33837;DHT22;20140;49.356;8.812;2023-02-01T14:42:54;6.90;99.90
33837;DHT22;20140;49.356;8.812;2023-02-01T14:47:48;6.90;99.90
33837;DHT22;20140;49.356;8.812;2023-02-01T14:56:04;6.80;99.90
33837;DHT22;20140;49.356;8.812;2023-02-01T14:58:42;6.90;99.90
33837;DHT22;20140;49.356;8.812;2023-02-01T15:01:21;6.90;99.90
33837;DHT22;20140;49.356;8.812;2023-02-01T15:03:48;6.80;99.90
33837;DHT22;20140;49.356;8.812;2023-02-01T15:09:07;6.80;99.90
33837;DHT22;20140;49.356;8.812;2023-02-01T15:14:27;6.80;99.90
33837;DHT22;20140;49.356;8.812;2023-02-01T15:16:53;6.80;99.90
33837;DHT22;20140;49.356;8.812;2023-02-01T15:19:20;6.80;99.90
33837;DHT22;20140;49.356;8.812;2023-02-01T15:21:49;6.90;99.90
33837;DHT22;20140;49.356;8.812;2023-02-01T15:24:26;6.90;99.90
33837;DHT22;20140;49.356;8.812;2023-02-01T15:26:53;6.90;99.90
33837;DHT22;20140;49.356;8.812;2023-02-01T15:29:22;7.00;99.90
33837;DHT22;20140;49.356;8.812;2023-02-01T15:31:51;6.90;99.90
33837;DHT22;20140;49.356;8.812;2023-02-01T15:34:18;7.00;99.90
33837;DHT22;20140;49.356;8.812;2023-02-01T15:36:45;7.00;99.90
33837;DHT22;20140;49.356;8.812;2023-02-01T15:41:50;7.00;99.90
33837;DHT22;20140;49.356;8.812;2023-02-01T15:44:39;7.00;99.90
33837;DHT22;20140;49.356;8.812;2023-02-01T15:47:23;6.90;99.90
33837;DHT22;20140;49.356;8.812;2023-02-01T15:49:54;6.90;99.90
33837;DHT22;20140;49.356;8.812;2023-02-01T15:52:36;7.00;99.90
33837;DHT22;20140;49.356;8.812;2023-02-01T15:55:05;7.00;99.90
33837;DHT22;20140;49.356;8.812;2023-02-01T15:57:35;7.00;99.90
33837;DHT22;20140;49.356;8.812;2023-02-01T16:00:21;7.00;99.90
33837;DHT22;20140;49.356;8.812;2023-02-01T16:02:53;7.00;99.90
33837;DHT22;20140;49.356;8.812;2023-02-01T16:05:38;7.10;99.90
33837;DHT22;20140;49.356;8.812;2023-02-01T16:08:09;7.00;99.90
33837;DHT22;20140;49.356;8.812;2023-02-01T16:10:42;7.00;99.90
33837;DHT22;20140;49.356;8.812;2023-02-01T16:13:09;7.10;99.90
33837;DHT22;20140;49.356;8.812;2023-02-01T16:15:34;7.00;99.90
33837;DHT22;20140;49.356;8.812;2023-02-01T16:18:00;7.10;99.90
33837;DHT22;20140;49.356;8.812;2023-02-01T16:20:25;7.00;99.90
33837;DHT22;20140;49.356;8.812;2023-02-01T16:22:51;7.10;99.90
33837;DHT22;20140;49.356;8.812;2023-02-01T16:25:17;7.10;99.90
33837;DHT22;20140;49.356;8.812;2023-02-01T16:27:42;7.10;99.90
33837;DHT22;20140;49.356;8.812;2023-02-01T16:30:08;7.10;99.90
33837;DHT22;20140;49.356;8.812;2023-02-01T16:32:35;7.00;99.90
33837;DHT22;20140;49.356;8.812;2023-02-01T16:35:14;7.00;99.90
33837;DHT22;20140;49.356;8.812;2023-02-01T16:37:44;7.00;99.90
33837;DHT22;20140;49.356;8.812;2023-02-01T16:40:14;7.00;99.90
33837;DHT22;20140;49.356;8.812;2023-02-01T16:42:39;7.00;99.90
33837;DHT22;20140;49.356;8.812;2023-02-01T16:45:05;7.00;99.90
33837;DHT22;20140;49.356;8.812;2023-02-01T16:47:31;7.00;99.90
33837;DHT22;20140;49.356;8.812;2023-02-01T16:49:57;7.00;99.90
33837;DHT22;20140;49.356;8.812;2023-02-01T16:52:24;7.00;99.90
33837;DHT22;20140;49.356;8.812;2023-02-01T16:54:50;6.90;99.90
33837;DHT22;20140;49.356;8.812;2023-02-01T16:57:17;7.00;99.90
33837;DHT22;20140;49.356;8.812;2023-02-01T16:59:43;7.00;99.90
33837;DHT22;20140;49.356;8.812;2023-02-01T17:02:15;7.00;99.90
33837;DHT22;20140;49.356;8.812;2023-02-01T17:04:41;7.10;99.90
33837;DHT22;20140;49.356;8.812;2023-02-01T17:07:17;7.10;99.90
33837;DHT22;20140;49.356;8.812;2023-02-01T17:09:44;7.10;99.90
33837;DHT22;20140;49.356;8.812;2023-02-01T17:12:29;7.10;99.90
33837;DHT22;20140;49.356;8.812;2023-02-01T17:14:56;7.10;99.90
33837;DHT22;20140;49.356;8.812;2023-02-01T17:17:23;7.10;99.90
33837;DHT22;20140;49.356;8.812;2023-02-01T17:19:51;7.10;99.90
33837;DHT22;20140;49.356;8.812;2023-02-01T17:22:19;7.10;99.90
33837;DHT22;20140;49.356;8.812;2023-02-01T17:24:45;7.10;99.90
33837;DHT22;20140;49.356;8.812;2023-02-01T17:27:11;7.10;99.90
33837;DHT22;20140;49.356;8.812;2023-02-01T17:29:36;7.10;99.90
33837;DHT22;20140;49.356;8.812;2023-02-01T17:32:03;7.10;99.90
33837;DHT22;20140;49.356;8.812;2023-02-01T17:34:29;7.10;99.90
33837;DHT22;20140;49.356;8.812;2023-02-01T17:36:55;7.00;99.90
33837;DHT22;20140;49.356;8.812;2023-02-01T17:39:20;7.00;99.90
33837;DHT22;20140;49.356;8.812;2023-02-01T17:42:10;7.00;99.90
33837;DHT22;20140;49.356;8.812;2023-02-01T17:44:36;6.90;99.90
33837;DHT22;20140;49.356;8.812;2023-02-01T17:47:02;6.90;99.90
33837;DHT22;20140;49.356;8.812;2023-02-01T17:49:27;7.00;99.90
33837;DHT22;20140;49.356;8.812;2023-02-01T17:51:54;7.00;99.90
33837;DHT22;20140;49.356;8.812;2023-02-01T17:54:20;7.00;99.90
33837;DHT22;20140;49.356;8.812;2023-02-01T17:56:46;6.90;99.90
33837;DHT22;20140;49.356;8.812;2023-02-01T17:59:14;6.90;99.90
33837;DHT22;20140;49.356;8.812;2023-02-01T18:01:40;6.90;99.90
33837;DHT22;20140;49.356;8.812;2023-02-01T18:04:10;6.90;99.90
33837;DHT22;20140;49.356;8.812;2023-02-01T18:06:36;6.90;99.90
33837;DHT22;20140;49.356;8.812;2023-02-01T18:09:02;6.80;99.90
33837;DHT22;20140;49.356;8.812;2023-02-01T18:11:27;6.90;99.90
33837;DHT22;20140;49.356;8.812;2023-02-01T18:13:57;6.80;99.90
33837;DHT22;20140;49.356;8.812;2023-02-01T18:18:52;6.70;99.90
33837;DHT22;20140;49.356;8.812;2023-02-01T18:21:20;6.70;99.90
33837;DHT22;20140;49.356;8.812;2023-02-01T18:23:47;6.70;99.90